Terminal Aerodrome Forecast
Issued by NWS Mt. Holly, NJ

Home | Current Version | Previous Version | Text Only | Print | Product List | Glossary On
Versions: 1 2 3 4 5 6 7 8 9 10 11 12 13 14 15 16 17 18
000
FTUS41 KPHI 311100
TAFACY
TAF
KACY 311131Z 3112/0112 35005KT P6SM SCT040
     FM311400 03006KT P6SM SCT040
     FM311800 05008KT P6SM BKN035
     FM010200 03006KT P6SM OVC025
     FM010800 02010G20KT 3SM -RA OVC010=

USA.gov is the U.S. government's official web portal to all federal, state and local government web resources and services.